createdAt,value
2019-01-25T00:03:20.339Z,-1.08
2019-01-25T00:05:49.132Z,-0.97
2019-01-25T00:08:17.742Z,-1.03
2019-01-25T00:10:46.414Z,-1.02
2019-01-25T00:13:15.044Z,-1.06
2019-01-25T00:15:43.690Z,-1.10
2019-01-25T00:18:12.341Z,-1.15
2019-01-25T00:20:41.094Z,-1.10
2019-01-25T00:23:09.785Z,-1.15
2019-01-25T00:25:38.426Z,-1.19
2019-01-25T00:28:07.145Z,-1.08
2019-01-25T00:30:35.828Z,-0.80
2019-01-25T00:33:04.484Z,-0.64
2019-01-25T00:35:33.194Z,-0.77
2019-01-25T00:38:01.832Z,-0.92
2019-01-25T00:40:30.437Z,-1.13
2019-01-25T00:42:59.145Z,-1.19
2019-01-25T00:45:27.772Z,-1.12
2019-01-25T00:47:56.554Z,-1.06
2019-01-25T00:50:25.235Z,-1.00
2019-01-25T00:52:54.101Z,-0.97
2019-01-25T00:55:22.792Z,-1.07
2019-01-25T00:57:51.492Z,-1.00
2019-01-25T01:00:22.360Z,-0.97
2019-01-25T01:02:51.258Z,-1.14
2019-01-25T01:05:20.629Z,-1.13
2019-01-25T01:10:25.588Z,-1.06
2019-01-25T01:12:54.266Z,-0.91
2019-01-25T01:15:22.961Z,-1.07
2019-01-25T01:17:51.721Z,-1.19
2019-01-25T01:20:20.992Z,-1.24
2019-01-25T01:25:44.432Z,-1.27
2019-01-25T01:28:13.124Z,-1.45
2019-01-25T01:30:41.746Z,-1.32
2019-01-25T01:33:10.494Z,-1.29
2019-01-25T01:35:39.298Z,-1.10
2019-01-25T01:38:08.118Z,-1.03
2019-01-25T01:40:36.832Z,-0.89
2019-01-25T01:43:45.258Z,-0.82
2019-01-25T01:46:13.935Z,-0.76
2019-01-25T01:48:42.635Z,-0.75
2019-01-25T01:51:11.356Z,-0.93
2019-01-25T01:53:40.114Z,-1.11
2019-01-25T01:56:08.741Z,-0.98
2019-01-25T01:58:37.401Z,-1.06
2019-01-25T02:01:06.085Z,-1.10
2019-01-25T02:03:34.778Z,-1.06
2019-01-25T02:06:03.500Z,-1.07
2019-01-25T02:08:32.186Z,-1.39
2019-01-25T02:11:00.828Z,-1.31
2019-01-25T02:13:29.574Z,-1.26
2019-01-25T02:15:58.303Z,-1.12
2019-01-25T02:18:27.015Z,-1.09
2019-01-25T02:20:55.710Z,-1.36
2019-01-25T02:23:24.349Z,-1.37
2019-01-25T02:25:53.044Z,-1.46
2019-01-25T02:28:21.757Z,-1.52
2019-01-25T02:30:50.389Z,-1.44
2019-01-25T02:33:19.087Z,-1.43
2019-01-25T02:35:47.789Z,-1.39
2019-01-25T02:38:16.394Z,-1.31
2019-01-25T02:40:45.033Z,-1.30
2019-01-25T02:43:13.648Z,-1.42
2019-01-25T02:45:42.328Z,-1.40
2019-01-25T02:48:11.030Z,-1.33
2019-01-25T02:50:39.718Z,-1.30
2019-01-25T02:53:08.344Z,-1.41
2019-01-25T02:55:36.977Z,-1.45
2019-01-25T02:58:05.991Z,-1.45
2019-01-25T03:00:34.697Z,-1.42
2019-01-25T03:03:03.342Z,-1.31
2019-01-25T03:05:31.995Z,-1.34
2019-01-25T03:08:00.706Z,-1.39
2019-01-25T03:10:29.670Z,-1.35
2019-01-25T03:12:59.852Z,-1.42
2019-01-25T03:15:28.513Z,-1.39
2019-01-25T03:17:57.211Z,-1.40
2019-01-25T03:20:25.960Z,-1.42
2019-01-25T03:22:54.642Z,-1.29
2019-01-25T03:25:25.518Z,-1.27
2019-01-25T03:28:13.322Z,-1.29
2019-01-25T03:30:41.967Z,-1.34
2019-01-25T03:33:10.599Z,-1.32
2019-01-25T03:35:39.273Z,-1.26
2019-01-25T03:38:07.915Z,-1.28
2019-01-25T03:40:36.562Z,-1.26
2019-01-25T03:43:05.251Z,-1.19
2019-01-25T03:45:33.877Z,-1.46
2019-01-25T03:48:02.655Z,-1.44
2019-01-25T03:51:11.085Z,-1.57
2019-01-25T03:53:39.723Z,-1.50
2019-01-25T03:56:08.481Z,-1.49
2019-01-25T03:58:37.090Z,-1.42
2019-01-25T04:01:05.834Z,-1.23
2019-01-25T04:03:34.592Z,-1.32
2019-01-25T04:06:03.333Z,-1.30
2019-01-25T04:08:32.060Z,-1.21
2019-01-25T04:11:03.953Z,-1.00
2019-01-25T04:13:31.157Z,-1.10
2019-01-25T04:15:59.873Z,-1.42
2019-01-25T04:18:28.499Z,-1.48
2019-01-25T04:20:57.289Z,-1.48
2019-01-25T04:23:26.005Z,-1.51
2019-01-25T04:25:54.647Z,-1.38
2019-01-25T04:28:23.272Z,-1.45
2019-01-25T04:30:52.097Z,-1.18
2019-01-25T04:33:20.815Z,-1.26
2019-01-25T04:35:49.539Z,-1.33
2019-01-25T04:38:18.160Z,-1.37
2019-01-25T04:40:46.881Z,-1.36
2019-01-25T04:43:15.607Z,-1.34
2019-01-25T04:45:44.229Z,-1.27
2019-01-25T04:48:32.076Z,-1.42
2019-01-25T04:51:40.547Z,-1.39
2019-01-25T04:54:09.289Z,-1.62
2019-01-25T04:56:38.778Z,-1.75
2019-01-25T04:59:07.395Z,-1.67
2019-01-25T05:01:36.166Z,-1.61
2019-01-25T05:04:04.985Z,-1.58
2019-01-25T05:06:33.620Z,-1.44
2019-01-25T05:09:02.241Z,-1.40
2019-01-25T05:11:30.913Z,-1.40
2019-01-25T05:14:18.787Z,-1.57
2019-01-25T05:16:47.436Z,-1.61
2019-01-25T05:19:16.079Z,-1.64
2019-01-25T05:21:44.720Z,-1.81
2019-01-25T05:24:13.415Z,-1.75
2019-01-25T05:26:42.040Z,-1.73
2019-01-25T05:29:10.657Z,-1.77
2019-01-25T05:31:39.449Z,-1.79
2019-01-25T05:34:08.078Z,-1.70
2019-01-25T05:36:36.841Z,-1.75
2019-01-25T05:39:08.161Z,-1.75
2019-01-25T05:41:36.804Z,-1.68
2019-01-25T05:44:05.749Z,-1.59
2019-01-25T05:46:34.354Z,-1.67
2019-01-25T05:49:03.005Z,-1.63
2019-01-25T05:51:33.717Z,-1.63
2019-01-25T05:54:02.143Z,-1.46
2019-01-25T05:56:30.808Z,-1.49
2019-01-25T05:58:59.429Z,-1.39
2019-01-25T06:01:28.070Z,-1.42
2019-01-25T06:03:56.760Z,-1.66
2019-01-25T06:06:25.407Z,-1.75
2019-01-25T06:08:54.043Z,-1.53
2019-01-25T06:11:22.679Z,-1.37
2019-01-25T06:13:51.326Z,-1.31
2019-01-25T06:16:20.006Z,-1.26
2019-01-25T06:18:48.790Z,-1.37
2019-01-25T06:21:17.450Z,-1.55
2019-01-25T06:23:46.083Z,-1.59
2019-01-25T06:26:54.526Z,-1.73
2019-01-25T06:29:23.200Z,-1.76
2019-01-25T06:31:51.920Z,-1.60
2019-01-25T06:34:20.549Z,-1.62
2019-01-25T06:36:49.190Z,-1.50
2019-01-25T06:39:17.823Z,-1.47
2019-01-25T06:41:46.439Z,-1.57
2019-01-25T06:44:15.096Z,-1.50
2019-01-25T06:46:43.719Z,-1.51
2019-01-25T06:49:12.364Z,-1.58
2019-01-25T06:51:41.012Z,-1.55
2019-01-25T06:54:09.668Z,-1.62
2019-01-25T06:56:38.296Z,-1.59
2019-01-25T06:59:25.931Z,-1.70
2019-01-25T07:02:07.509Z,-1.62
2019-01-25T07:04:36.152Z,-1.67
2019-01-25T07:09:54.761Z,-1.70
2019-01-25T07:12:23.426Z,-1.57
2019-01-25T07:14:52.123Z,-1.59
2019-01-25T07:20:12.212Z,-1.53
2019-01-25T07:22:40.882Z,-1.57
2019-01-25T07:25:10.245Z,-1.60
2019-01-25T07:27:38.958Z,-1.50
2019-01-25T07:30:09.341Z,-1.47
2019-01-25T07:32:37.948Z,-1.41
2019-01-25T07:35:07.333Z,-1.42
2019-01-25T07:37:36.040Z,-1.41
2019-01-25T07:40:44.893Z,-1.49
2019-01-25T07:43:13.493Z,-1.50
2019-01-25T07:45:42.244Z,-1.51
2019-01-25T07:48:10.905Z,-1.51
2019-01-25T07:50:39.675Z,-1.42
2019-01-25T07:53:08.345Z,-1.48
2019-01-25T07:55:37.073Z,-1.40
2019-01-25T07:58:05.794Z,-1.40
2019-01-25T08:00:34.694Z,-1.39
2019-01-25T08:03:03.407Z,-1.16
2019-01-25T08:05:32.122Z,-1.18
2019-01-25T08:08:00.807Z,-1.09
2019-01-25T08:10:29.445Z,-1.05
2019-01-25T08:12:58.173Z,-0.99
2019-01-25T08:15:27.032Z,-0.98
2019-01-25T08:17:55.712Z,-0.82
2019-01-25T08:20:24.506Z,-0.87
2019-01-25T08:22:53.270Z,-1.08
2019-01-25T08:25:22.042Z,-1.05
2019-01-25T08:27:50.733Z,-1.05
2019-01-25T08:30:59.276Z,-1.03
2019-01-25T08:33:27.926Z,-1.26
2019-01-25T08:35:56.769Z,-1.39
2019-01-25T08:38:25.526Z,-1.31
2019-01-25T08:40:54.748Z,-1.39
2019-01-25T08:43:24.653Z,-1.30
2019-01-25T08:45:53.425Z,-1.19
2019-01-25T08:48:22.149Z,-0.98
2019-01-25T08:50:50.814Z,-1.30
2019-01-25T08:53:19.477Z,-1.31
2019-01-25T08:55:48.139Z,-1.31
2019-01-25T08:58:16.742Z,-1.09
2019-01-25T09:00:45.394Z,-0.93
2019-01-25T09:03:14.083Z,-0.68
2019-01-25T09:05:42.739Z,-0.38
2019-01-25T09:08:11.487Z,-0.52
2019-01-25T09:10:40.108Z,-0.62
2019-01-25T09:13:08.844Z,-0.60
2019-01-25T09:15:38.455Z,-0.75
2019-01-25T09:20:41.237Z,-1.05
2019-01-25T09:23:09.941Z,-0.98
2019-01-25T09:25:38.677Z,-1.01
2019-01-25T09:28:07.398Z,-0.95
2019-01-25T09:30:36.019Z,-0.64
2019-01-25T09:33:04.811Z,-0.92
2019-01-25T09:35:33.441Z,-0.91
2019-01-25T09:38:02.243Z,-0.80
2019-01-25T09:40:30.944Z,-0.87
2019-01-25T09:42:59.645Z,-0.97
2019-01-25T09:45:28.371Z,-0.70
2019-01-25T09:47:57.010Z,-0.94
2019-01-25T09:50:25.744Z,-0.76
2019-01-25T09:52:54.379Z,-0.67
2019-01-25T09:55:24.383Z,-0.57
2019-01-25T09:57:54.976Z,-0.51
2019-01-25T10:00:26.814Z,-0.43
2019-01-25T10:02:55.514Z,-0.15
2019-01-25T10:05:24.269Z,-0.44
2019-01-25T10:07:52.931Z,-0.53
2019-01-25T10:10:21.755Z,-0.64
2019-01-25T10:12:50.402Z,-0.60
2019-01-25T10:15:21.010Z,-0.32
2019-01-25T10:17:49.639Z,-0.08
2019-01-25T10:23:32.106Z,-0.51
2019-01-25T10:26:00.858Z,-0.56
2019-01-25T10:28:29.642Z,-0.35
2019-01-25T10:30:58.411Z,-0.30
2019-01-25T10:33:27.082Z,-0.45
2019-01-25T10:35:55.736Z,-0.60
2019-01-25T10:38:24.361Z,-0.46
2019-01-25T10:40:52.991Z,-0.63
2019-01-25T10:43:21.632Z,-0.34
2019-01-25T10:45:50.286Z,-0.17
2019-01-25T10:48:18.987Z,-0.25
2019-01-25T10:50:47.696Z,-0.22
2019-01-25T10:53:16.406Z,-0.16
2019-01-25T10:55:45.124Z,-0.36
2019-01-25T10:58:13.846Z,-0.35
2019-01-25T11:00:42.630Z,-0.23
2019-01-25T11:03:11.397Z,-0.14
2019-01-25T11:05:40.055Z,-0.21
2019-01-25T11:08:08.687Z,-0.28
2019-01-25T11:10:37.432Z,-0.28
2019-01-25T11:13:06.138Z,0.07
2019-01-25T11:15:34.902Z,0.02
2019-01-25T11:18:03.665Z,0.04
2019-01-25T11:20:32.353Z,0.27
2019-01-25T11:23:00.984Z,0.27
2019-01-25T11:25:32.358Z,0.09
2019-01-25T11:28:00.967Z,0.16
2019-01-25T11:30:29.679Z,0.25
2019-01-25T11:32:58.432Z,0.33
2019-01-25T11:35:27.125Z,0.14
2019-01-25T11:37:55.847Z,0.13
2019-01-25T11:40:45.108Z,0.23
2019-01-25T11:43:13.779Z,0.33
2019-01-25T11:45:42.814Z,0.08
2019-01-25T11:48:13.875Z,0.12
2019-01-25T11:50:42.560Z,0.26
2019-01-25T11:53:11.285Z,0.27
2019-01-25T11:55:40.028Z,0.25
2019-01-25T11:58:08.748Z,0.44
2019-01-25T12:03:27.086Z,0.77
2019-01-25T12:05:56.906Z,0.91
2019-01-25T12:08:26.148Z,0.74
2019-01-25T12:10:54.888Z,0.65
2019-01-25T12:13:23.661Z,0.73
2019-01-25T12:15:52.342Z,0.73
2019-01-25T12:18:21.151Z,0.79
2019-01-25T12:20:49.757Z,0.68
2019-01-25T12:23:18.517Z,0.96
2019-01-25T12:25:47.207Z,1.11
2019-01-25T12:28:15.864Z,1.02
2019-01-25T12:30:44.492Z,1.20
2019-01-25T12:33:13.135Z,0.91
2019-01-25T12:35:43.509Z,0.99
2019-01-25T12:38:12.308Z,1.02
2019-01-25T12:40:42.318Z,0.89
2019-01-25T12:43:11.514Z,0.88
2019-01-25T12:45:40.200Z,0.92
2019-01-25T12:48:09.020Z,0.91
2019-01-25T12:50:59.225Z,0.90
2019-01-25T12:53:27.877Z,1.06
2019-01-25T12:55:56.584Z,1.09
2019-01-25T12:58:25.218Z,1.19
2019-01-25T13:00:53.835Z,1.30
2019-01-25T13:03:22.555Z,1.00
2019-01-25T13:05:51.241Z,1.13
2019-01-25T13:08:19.998Z,1.23
2019-01-25T13:10:48.619Z,1.37
2019-01-25T13:13:17.372Z,1.36
2019-01-25T13:15:45.993Z,1.26
2019-01-25T13:18:14.638Z,1.19
2019-01-25T13:20:43.881Z,1.40
2019-01-25T13:23:12.592Z,1.34
2019-01-25T13:25:41.422Z,1.53
2019-01-25T13:28:10.132Z,1.50
2019-01-25T13:30:38.857Z,1.42
2019-01-25T13:33:07.605Z,1.40
2019-01-25T13:35:36.323Z,1.35
2019-01-25T13:38:44.775Z,1.45
2019-01-25T13:41:13.474Z,1.63
2019-01-25T13:43:42.116Z,1.84
2019-01-25T13:46:10.747Z,1.95
2019-01-25T13:48:39.548Z,1.71
2019-01-25T13:51:08.247Z,1.50
2019-01-25T13:53:56.281Z,1.71
2019-01-25T13:56:24.914Z,1.88
2019-01-25T13:58:53.819Z,1.80
2019-01-25T14:01:22.444Z,1.66
2019-01-25T14:03:51.070Z,1.86
2019-01-25T14:06:19.809Z,1.96
2019-01-25T14:08:48.546Z,1.95
2019-01-25T14:11:17.170Z,2.07
2019-01-25T14:13:46.968Z,2.00
2019-01-25T14:16:35.491Z,2.16
2019-01-25T14:19:04.382Z,2.06
2019-01-25T14:21:33.014Z,2.00
2019-01-25T14:24:01.630Z,1.84
2019-01-25T14:26:30.289Z,1.93
2019-01-25T14:28:58.907Z,1.98
2019-01-25T14:31:27.533Z,1.83
2019-01-25T14:33:56.151Z,1.80
2019-01-25T14:36:24.927Z,1.99
2019-01-25T14:38:53.540Z,2.15
2019-01-25T14:41:22.193Z,2.20
2019-01-25T14:43:54.582Z,2.19
2019-01-25T14:46:21.156Z,2.12
2019-01-25T14:48:49.815Z,2.07
2019-01-25T14:51:18.533Z,2.18
2019-01-25T14:53:50.920Z,2.21
2019-01-25T14:56:17.600Z,2.25
2019-01-25T14:58:46.334Z,2.23
2019-01-25T15:01:14.955Z,2.29
2019-01-25T15:03:43.610Z,2.20
2019-01-25T15:06:12.300Z,2.12
2019-01-25T15:08:41.068Z,2.00
2019-01-25T15:11:17.035Z,2.03
2019-01-25T15:13:45.663Z,2.02
2019-01-25T15:16:14.274Z,2.05
2019-01-25T15:18:42.977Z,2.12
2019-01-25T15:21:11.669Z,2.06
2019-01-25T15:23:40.355Z,1.86
2019-01-25T15:26:08.984Z,1.88
2019-01-25T15:28:37.637Z,1.99
2019-01-25T15:31:06.342Z,2.01
2019-01-25T15:33:35.072Z,2.09
2019-01-25T15:36:03.881Z,2.23
2019-01-25T15:38:32.518Z,2.28
2019-01-25T15:41:20.364Z,2.34
2019-01-25T15:43:49.000Z,2.05
2019-01-25T15:46:17.717Z,1.95
2019-01-25T15:48:46.338Z,1.93
2019-01-25T15:51:15.027Z,2.00
2019-01-25T15:53:43.721Z,2.07
2019-01-25T15:56:12.452Z,1.72
2019-01-25T15:58:41.155Z,1.90
2019-01-25T16:01:09.910Z,1.94
2019-01-25T16:03:38.541Z,1.87
2019-01-25T16:06:07.253Z,1.94
2019-01-25T16:08:35.877Z,2.05
2019-01-25T16:11:04.562Z,1.95
2019-01-25T16:13:33.245Z,1.97
2019-01-25T16:16:01.941Z,2.09
2019-01-25T16:18:30.581Z,1.93
2019-01-25T16:20:59.226Z,2.01
2019-01-25T16:23:47.086Z,2.03
2019-01-25T16:26:15.728Z,2.05
2019-01-25T16:28:44.352Z,2.00
2019-01-25T16:31:12.964Z,2.01
2019-01-25T16:33:41.593Z,2.04
2019-01-25T16:36:10.210Z,1.91
2019-01-25T16:38:38.862Z,1.89
2019-01-25T16:41:07.473Z,2.03
2019-01-25T16:43:36.190Z,2.02
2019-01-25T16:46:04.995Z,1.89
2019-01-25T16:48:33.631Z,1.92
2019-01-25T16:51:02.256Z,1.92
2019-01-25T16:53:30.911Z,1.93
2019-01-25T16:55:59.543Z,1.88
2019-01-25T16:58:28.257Z,1.94
2019-01-25T17:00:56.890Z,1.87
2019-01-25T17:03:25.504Z,1.94
2019-01-25T17:05:54.272Z,1.95
2019-01-25T17:08:22.988Z,1.99
2019-01-25T17:10:51.624Z,2.01
2019-01-25T17:13:20.382Z,1.98
2019-01-25T17:15:49.018Z,1.93
2019-01-25T17:18:37.044Z,1.94
2019-01-25T17:21:06.114Z,1.93
2019-01-25T17:23:37.489Z,1.97
2019-01-25T17:29:08.706Z,1.92
2019-01-25T17:31:37.877Z,1.83
2019-01-25T17:36:56.969Z,2.04
2019-01-25T17:39:45.538Z,1.96
2019-01-25T17:42:14.664Z,1.77
2019-01-25T17:47:26.980Z,1.80
2019-01-25T17:49:55.766Z,1.97
2019-01-25T17:52:24.663Z,1.94
2019-01-25T17:54:53.786Z,1.97
2019-01-25T17:57:22.667Z,1.89
2019-01-25T18:00:39.544Z,2.01
2019-01-25T18:03:09.757Z,1.96
2019-01-25T18:05:46.412Z,2.00
2019-01-25T18:21:05.130Z,2.01
2019-01-25T18:24:13.136Z,1.87
2019-01-25T18:29:54.031Z,1.92
2019-01-25T18:32:34.706Z,1.87
2019-01-25T18:35:40.835Z,1.77
2019-01-25T18:38:09.778Z,1.89
2019-01-25T18:40:38.707Z,1.91
2019-01-25T18:43:07.777Z,1.74
2019-01-25T18:45:59.106Z,1.85
2019-01-25T18:51:19.166Z,1.76
2019-01-25T18:53:48.766Z,1.91
2019-01-25T18:56:21.940Z,1.88
2019-01-25T19:02:43.647Z,1.64
2019-01-25T19:05:12.773Z,1.61
2019-01-25T19:10:44.146Z,1.52
2019-01-25T19:16:29.191Z,1.56
2019-01-25T19:18:58.171Z,1.48
2019-01-25T19:36:36.953Z,1.41
2019-01-25T19:42:27.402Z,1.30
2019-01-25T19:44:56.540Z,1.46
2019-01-25T19:48:05.355Z,1.43
2019-01-25T19:59:35.629Z,1.38
2019-01-25T20:05:00.384Z,0.94
2019-01-25T20:07:31.586Z,0.98
2019-01-25T20:19:02.829Z,0.98
2019-01-25T20:21:31.711Z,0.84
2019-01-25T20:24:00.583Z,0.98
2019-01-25T20:29:30.805Z,0.98
2019-01-25T20:34:51.307Z,0.77
2019-01-25T20:37:20.446Z,0.84
2019-01-25T20:39:49.384Z,0.84
2019-01-25T20:42:19.108Z,0.89
2019-01-25T20:44:48.111Z,0.74
2019-01-25T20:47:17.130Z,0.84
2019-01-25T20:52:20.929Z,0.83
2019-01-25T20:55:09.594Z,0.78
2019-01-25T20:57:40.989Z,0.71
2019-01-25T21:00:13.402Z,0.75
2019-01-25T21:02:42.329Z,0.72
2019-01-25T21:05:11.298Z,0.64
2019-01-25T21:07:59.573Z,0.72
2019-01-25T21:13:40.293Z,0.67
2019-01-25T21:16:09.523Z,0.65
2019-01-25T21:18:39.276Z,0.65
2019-01-25T21:21:08.919Z,0.65
2019-01-25T21:23:37.857Z,0.68
2019-01-25T21:26:07.323Z,0.67
2019-01-25T21:28:36.479Z,0.65
2019-01-25T21:31:06.194Z,0.63
2019-01-25T21:33:50.130Z,0.64
2019-01-25T21:39:13.157Z,0.58
2019-01-25T21:44:56.321Z,0.62
2019-01-25T21:47:26.070Z,0.77
2019-01-25T21:49:57.192Z,0.69
2019-01-25T21:55:39.365Z,0.68
2019-01-25T21:57:56.101Z,0.62
2019-01-25T22:01:04.024Z,0.60
2019-01-25T22:03:36.444Z,0.60
2019-01-25T22:14:28.353Z,0.67
2019-01-25T22:21:37.542Z,0.79
2019-01-25T22:23:52.850Z,0.74
2019-01-25T22:31:34.446Z,0.72
2019-01-25T22:34:06.324Z,0.92
2019-01-25T22:36:35.757Z,0.78
2019-01-25T22:42:06.332Z,0.85
2019-01-25T22:44:34.963Z,0.84
2019-01-25T22:47:03.705Z,0.80
2019-01-25T22:49:32.440Z,0.80
2019-01-25T22:52:01.092Z,0.93
2019-01-25T22:54:29.743Z,0.86
2019-01-25T22:56:58.447Z,0.76
2019-01-25T22:59:27.088Z,0.68
2019-01-25T23:01:55.715Z,0.77
2019-01-25T23:05:02.827Z,0.74
2019-01-25T23:07:32.713Z,0.77
2019-01-25T23:10:21.235Z,0.73
2019-01-25T23:12:49.876Z,0.81
2019-01-25T23:15:18.937Z,0.76
2019-01-25T23:17:47.670Z,0.78
2019-01-25T23:20:16.359Z,0.85
2019-01-25T23:22:45.073Z,0.83
2019-01-25T23:25:13.921Z,0.92
2019-01-25T23:27:42.559Z,0.85
2019-01-25T23:30:30.447Z,0.83
2019-01-25T23:32:59.163Z,0.87
2019-01-25T23:35:27.896Z,0.84
2019-01-25T23:37:56.528Z,0.84
2019-01-25T23:40:25.146Z,0.83
2019-01-25T23:42:53.793Z,1.00
2019-01-25T23:45:22.469Z,1.06
2019-01-25T23:47:51.169Z,0.99
2019-01-25T23:50:19.861Z,0.97
2019-01-25T23:52:48.511Z,0.96
2019-01-25T23:55:17.307Z,1.12
2019-01-25T23:57:45.898Z,1.13
